Valiant — NA35 — position and weather

sailwx.info

Track history (hours):
 
Tides and Currents Weather Stations Pressure Air Temp Water Temp Dewpoint Dewpoint Depression Visibility Wind Speed Wind Dir Waves Ship Positions

Valiant

Last reported at 2016-Jul-20 13:28 UTC. Time now 2016-Aug-25 14:57 UTC.
Position N 39°28' W 075°58'.
Warning: this ship's position is 36 days out of date.

Length 14 m.

Type: Sailing vessel. MMSI: 369970076.

Date/timePositionNaut miles runAvg speedWind from/ knotsBaromVisibWave heightAir tempDewpointWater temp
2016-Jul-20 13:28N 39°28' W 075°58'6 6.0
2016-Jul-20 12:27N 39°32' W 075°52'5 5.2
2016-Jul-20 11:33N 39°32' W 075°46'6 6.0
2016-Jul-20 10:33N 39°33' W 075°38'5 4.8
2016-Jul-20 09:34N 39°31' W 075°33'5 4.5
2016-Jul-20 08:33N 39°27' W 075°33'5 4.9
2016-Jul-20 07:34N 39°23' W 075°29'5 5.3
2016-Jul-20 06:33N 39°19' W 075°24'6 5.8
2016-Jul-20 05:33N 39°15' W 075°19'56 4.2
2016-Jul-19 16:16N 39°34' W 074°11'5 7.6
2016-Jul-19 15:33N 39°39' W 074°07'7 6.8
2016-Jul-19 14:33N 39°45' W 074°03'18 5.9
2016-Jul-19 11:33N 40°02' W 073°58'40 5.6
2016-Jul-19 04:26N 40°42' W 074°02'180 5.3
2016-Jul-17 18:31N 42°30' W 070°49'  
2016-Jul-12 04:30N 39°14' W 075°18'4 4.7
2016-Jul-12 03:33N 39°17' W 075°22'6 6.1
2016-Jul-12 02:33N 39°21' W 075°27'7 6.6
2016-Jul-12 01:33N 39°26' W 075°33'7 7.3
2016-Jul-12 00:33N 39°34' W 075°33'5 5.3
2016-Jul-11 23:33N 39°33' W 075°40'5 5.2
2016-Jul-11 22:33N 39°32' W 075°46'3 2.7
2016-Jul-11 21:34N 39°32' W 075°50'6 6.0
2016-Jul-11 20:32N 39°29' W 075°57'  
Track history (hours):
 
Tides and Currents Weather Stations Pressure Air Temp Water Temp Dewpoint Dewpoint Depression Visibility Wind Speed Wind Dir Waves Ship Positions

Valiant

Last reported at 2016-Jul-20 13:28 UTC. Time now 2016-Aug-25 14:57 UTC.
Position N 39°28' W 075°58'.
Warning: this ship's position is 36 days out of date.

Length 14 m.

Type: Sailing vessel. MMSI: 369970076.

Date/timePositionNaut miles runAvg speedWind from/ knotsBaromVisibWave heightAir tempDewpointWater temp
2016-Jul-20 13:28N 39°28' W 075°58'6 6.0
2016-Jul-20 12:27N 39°32' W 075°52'5 5.2
2016-Jul-20 11:33N 39°32' W 075°46'6 6.0
2016-Jul-20 10:33N 39°33' W 075°38'5 4.8
2016-Jul-20 09:34N 39°31' W 075°33'5 4.5
2016-Jul-20 08:33N 39°27' W 075°33'5 4.9
2016-Jul-20 07:34N 39°23' W 075°29'5 5.3
2016-Jul-20 06:33N 39°19' W 075°24'6 5.8
2016-Jul-20 05:33N 39°15' W 075°19'56 4.2
2016-Jul-19 16:16N 39°34' W 074°11'5 7.6
2016-Jul-19 15:33N 39°39' W 074°07'7 6.8
2016-Jul-19 14:33N 39°45' W 074°03'18 5.9
2016-Jul-19 11:33N 40°02' W 073°58'40 5.6
2016-Jul-19 04:26N 40°42' W 074°02'180 5.3
2016-Jul-17 18:31N 42°30' W 070°49'  
2016-Jul-12 04:30N 39°14' W 075°18'4 4.7
2016-Jul-12 03:33N 39°17' W 075°22'6 6.1
2016-Jul-12 02:33N 39°21' W 075°27'7 6.6
2016-Jul-12 01:33N 39°26' W 075°33'7 7.3
2016-Jul-12 00:33N 39°34' W 075°33'5 5.3
2016-Jul-11 23:33N 39°33' W 075°40'5 5.2
2016-Jul-11 22:33N 39°32' W 075°46'3 2.7
2016-Jul-11 21:34N 39°32' W 075°50'6 6.0
2016-Jul-11 20:32N 39°29' W 075°57'  

Dump ship's entire track history